createdAt,value
2017-05-14T00:00:02.606Z,93.99
2017-05-14T00:10:02.476Z,94.32
2017-05-14T00:20:02.572Z,95.16
2017-05-14T00:30:02.070Z,95.25
2017-05-14T00:40:02.242Z,95.17
2017-05-14T00:50:02.973Z,94.7
2017-05-14T01:00:02.462Z,94.44
2017-05-14T01:10:02.764Z,94.51
2017-05-14T01:20:02.818Z,94.4
2017-05-14T01:30:02.290Z,95.05
2017-05-14T01:40:02.880Z,95.11
2017-05-14T01:50:02.062Z,96.75
2017-05-14T02:00:02.562Z,96.93
2017-05-14T02:10:02.909Z,96.38
2017-05-14T02:20:02.282Z,96.79
2017-05-14T02:30:02.733Z,97.54
2017-05-14T02:40:02.484Z,96.65
2017-05-14T02:50:02.116Z,97.45
2017-05-14T03:00:02.691Z,96.12
2017-05-14T03:10:02.274Z,96.77
2017-05-14T03:20:02.220Z,95.84
2017-05-14T03:30:02.673Z,96.71
2017-05-14T03:40:02.293Z,97.31
2017-05-14T03:50:02.726Z,97.51
2017-05-14T04:00:02.227Z,97.99
2017-05-14T04:10:02.341Z,98.77
2017-05-14T04:20:02.923Z,98.12
2017-05-14T04:30:02.802Z,99.03
2017-05-14T04:40:02.890Z,99.18
2017-05-14T04:50:02.678Z,99.14
2017-05-14T05:00:02.460Z,99.78
2017-05-14T05:10:02.977Z,99.15
2017-05-14T05:20:02.293Z,98.76
2017-05-14T05:30:02.879Z,99.29
2017-05-14T05:40:02.690Z,98.91
2017-05-14T05:50:02.388Z,98.72
2017-05-14T06:00:02.794Z,98.61
2017-05-14T06:10:02.790Z,97.69
2017-05-14T06:20:02.776Z,96.15
2017-05-14T06:30:03.005Z,93.63
2017-05-14T06:40:02.072Z,91.63
2017-05-14T06:50:02.400Z,91.13
2017-05-14T07:00:02.487Z,88.94
2017-05-14T07:10:02.392Z,88.36
2017-05-14T07:20:02.084Z,89.09
2017-05-14T07:30:02.360Z,86.33
2017-05-14T07:40:02.231Z,82.95
2017-05-14T07:50:02.152Z,81.74
2017-05-14T08:00:02.555Z,77.86
2017-05-14T08:10:02.997Z,79.1
2017-05-14T08:20:02.554Z,78.71
2017-05-14T08:30:02.791Z,76.24
2017-05-14T08:40:02.858Z,73
2017-05-14T08:50:02.734Z,71.91
2017-05-14T09:00:02.800Z,69.79
2017-05-14T09:10:02.059Z,68.45
2017-05-14T09:20:02.413Z,64.4
2017-05-14T09:30:02.923Z,63.02
2017-05-14T09:40:02.978Z,63.49
2017-05-14T09:50:02.124Z,61.65
2017-05-14T10:00:02.178Z,63.49
2017-05-14T10:10:02.219Z,61.15
2017-05-14T10:20:02.264Z,61.97
2017-05-14T10:30:02.925Z,61.43
2017-05-14T10:40:02.971Z,63.44
2017-05-14T10:50:02.582Z,62.11
2017-05-14T11:00:02.708Z,62.66
2017-05-14T11:10:02.256Z,62.61
2017-05-14T11:20:03.043Z,62.47
2017-05-14T11:30:02.294Z,61.96
2017-05-14T11:40:02.420Z,62.56
2017-05-14T11:50:02.189Z,63.03
2017-05-14T12:00:02.289Z,65.33
2017-05-14T12:10:02.320Z,65.83
2017-05-14T12:20:02.452Z,64.58
2017-05-14T12:30:02.816Z,63.32
2017-05-14T12:40:02.864Z,64.45
2017-05-14T12:50:02.999Z,64.82
2017-05-14T13:00:03.040Z,63.68
2017-05-14T13:10:03.013Z,62.79
2017-05-14T13:20:02.145Z,58.96
2017-05-14T13:30:02.313Z,60.51
2017-05-14T13:40:02.401Z,61.72
2017-05-14T13:50:02.714Z,63.23
2017-05-14T14:00:02.770Z,61.59
2017-05-14T14:10:02.992Z,62.03
2017-05-14T14:20:02.479Z,60.02
2017-05-14T14:30:02.145Z,60.07
2017-05-14T14:40:02.738Z,58.69
2017-05-14T14:50:02.956Z,58.73
2017-05-14T15:00:02.250Z,58.02
2017-05-14T15:10:02.283Z,58.36
2017-05-14T15:20:02.560Z,56.37
2017-05-14T15:30:02.808Z,56.25
2017-05-14T15:40:02.878Z,57.21
2017-05-14T15:50:02.147Z,54.83
2017-05-14T16:00:02.171Z,56.92
2017-05-14T16:10:02.404Z,52.12
2017-05-14T16:20:02.843Z,55.92
2017-05-14T16:30:02.416Z,55.86
2017-05-14T16:40:02.401Z,50.38
2017-05-14T16:50:02.692Z,50.87
2017-05-14T17:00:02.752Z,51.84
2017-05-14T17:10:02.787Z,51.99
2017-05-14T17:20:02.201Z,52.31
2017-05-14T17:30:02.955Z,52.84
2017-05-14T17:40:02.440Z,50.45
2017-05-14T17:50:02.680Z,52.71
2017-05-14T18:00:02.663Z,56.66
2017-05-14T18:10:02.073Z,58.37
2017-05-14T18:20:02.786Z,62.97
2017-05-14T18:30:02.249Z,67.41
2017-05-14T18:40:02.809Z,67.97
2017-05-14T18:50:02.804Z,73.5
2017-05-14T19:00:02.254Z,78.24
2017-05-14T19:10:02.263Z,80.43
2017-05-14T19:20:01.996Z,79.35
2017-05-14T19:30:02.530Z,79.12
2017-05-14T19:40:02.939Z,82.11
2017-05-14T19:50:02.073Z,81.52
2017-05-14T20:00:02.535Z,84.62
2017-05-14T20:10:02.517Z,85.21
2017-05-14T20:20:02.628Z,87.16
2017-05-14T20:30:02.079Z,89.17
2017-05-14T20:40:02.540Z,86.61
2017-05-14T20:50:02.513Z,85.52
2017-05-14T21:00:02.978Z,83.17
2017-05-14T21:10:02.894Z,82.81
2017-05-14T21:20:02.383Z,82.86
2017-05-14T21:30:02.851Z,83.02
2017-05-14T21:40:02.406Z,82.76
2017-05-14T21:50:02.594Z,83.77
2017-05-14T22:00:02.120Z,84.05
2017-05-14T22:10:02.172Z,85.87
2017-05-14T22:20:02.171Z,85.43
2017-05-14T22:30:02.685Z,86.31
2017-05-14T22:40:02.711Z,85.51
2017-05-14T22:50:02.096Z,85.72
2017-05-14T23:00:02.625Z,85.57
2017-05-14T23:10:02.110Z,84.6
2017-05-14T23:20:02.328Z,85.66
2017-05-14T23:30:02.782Z,86.37
2017-05-14T23:40:02.501Z,87.1
2017-05-14T23:50:03.001Z,87.57
